Highlands Peak, California Weather observations

Data are for observation ending at time listed.
 Day   Time    Ave.   Ave.  Ave.  Vector   Max.   Stn.    Total    Solar   Ave.  
  of    of     Air    Rel.  Wind   Wind    Wind   Baro.  Precip.   Rad.    Soil  
Year   Day     Temp.  Hum.  Speed  Dir.    Gust   Pres.                    Temp. 
2015   (PST)    F      %     mph   deg.    mph     mb.     in.     W/m2     F   
------------------------------------------------------------------------------
  60   14:50   49.5    64    9.1   274     13.7   926.0    0.00     695    57.4
  60   15:00   48.8    64    8.6   259     12.3   926.0    0.00     715    57.8
  60   15:10   48.2    68    8.1   274     12.8   926.1    0.00     285    58.0
  60   15:20   46.9    74    7.9   280     11.0   926.0    0.00     368    58.1
  60   15:30   48.1    73    6.2   266     11.1   926.0    0.00     663    58.2
  60   15:40   49.5    69    4.2   275      7.6   926.0    0.00     696    58.4
  60   15:50   49.2    73    3.9   227      8.4   926.1    0.00     184    58.5
  60   16:00   46.3    83    3.0   223      5.1   926.0    0.01      42    58.5
  60   16:10   44.9    87    1.9   204      3.7   925.9    0.00      39    58.6
  60   16:20   44.8    90    1.0    18      2.4   925.8    0.00      50    58.7
  60   16:30   44.8    88    2.6    18      4.7   925.8    0.00      85    58.6
  60   16:40   45.1    88    2.4   358      3.8   925.7    0.00     142    58.6
  60   16:50   45.3    86    2.9    45      4.1   925.8    0.00     131    58.6
  60   17:00   45.6    84    3.2   349      4.2   925.8    0.00     133    58.5
  60   17:10   46.5    85    2.8   280      5.0   925.9    0.00     173    58.5
  60   17:20   47.4    83    2.0   286      4.2   925.9    0.00     163    58.4
  60   17:30   47.7    83    3.1   279      4.5   926.0    0.00     128    58.4
  60   17:40   47.0    84    3.7   278      4.7   926.2    0.00      92    58.3
  60   17:50   46.2    84    2.0   309      3.9   926.2    0.00      57    58.2
  60   18:00   45.2    86    2.8   284      4.0   926.2    0.00      23    58.1
  60   18:10   44.4    83    1.4    52      2.5   926.2    0.00       6    58.0
  60   18:20   44.5    83    1.5    24      2.4   926.1    0.00       1    57.9
  60   18:30   44.3    84    0.2   264      1.3   926.2    0.00       0    57.8
  60   18:40   44.1    77    1.6   277      2.8   926.3    0.00       0    57.7
  60   18:50   44.4    82    3.3    92      5.3   926.4    0.00       0    57.5
  60   19:00   44.5    83    2.7    53      3.7   926.4    0.00       0    57.4
  60   19:10   44.6    81    4.7    75      6.4   926.5    0.00       0    57.2
  60   19:20   44.2    82    3.6    67      5.9   926.7    0.00       0    57.1
  60   19:30   45.2    76    2.3    66      4.5   926.8    0.00       0    56.9
  60   19:40   45.3    78    2.3   172      4.2   926.9    0.00       0    56.8
  60   19:50   44.5    80    2.5   114      3.7   926.9    0.00       0    56.7
  60   20:00   43.8    83    3.6   170      5.5   926.9    0.00       0    56.5
  60   20:10   43.5    84    2.3   171      3.7   926.9    0.00       0    56.4
  60   20:20   44.1    82    3.2   142      4.1   927.0    0.00       0    56.2
  60   20:30   44.0    83    1.9   143      3.1   926.9    0.00       0    56.0
  60   20:40   43.9    83    1.6    28      5.7   927.0    0.00       0    55.9
  60   20:50   43.1    85    4.2    90      5.6   926.9    0.00       0    55.8
  60   21:00   43.1    84    4.5    90      5.4   926.9    0.00       0    55.7
  60   21:10   43.7    79    4.1    82      5.2   927.0    0.00       0    55.6
  60   21:20   43.7    79    5.3    77      7.2   926.9    0.00       0    55.4
  60   21:30   43.4    79    4.6    81      5.8   926.9    0.00       0    55.3
  60   21:40   44.4    75    2.6    79      4.2   927.0    0.00       0    55.1
  60   21:50   44.5    74    2.5    93      4.0   927.0    0.00       0    55.0
  60   22:00   44.8    72    3.4   106      4.5   927.0    0.00       0    54.8
  60   22:10   45.4    70    1.4   107      2.8   927.0    0.00       0    54.6
  60   22:20   45.9    69    0.4   124      1.8   926.9    0.00       0    54.5
  60   22:30   45.4    70    2.1   100      3.2   926.9    0.00       0    54.3
  60   22:40   45.3    69    2.9   118      4.7   926.9    0.00       0    54.2
  60   22:50   45.5    68    4.3   141      5.7   926.8    0.00       0    53.8
  60   23:00   45.9    67    3.9   144      5.0   926.7    0.00       0    53.5
  60   23:10   46.2    66    1.8   164      3.7   926.7    0.00       0    53.5
  60   23:20   46.4    65    1.6   242      2.6   926.7    0.00       0    53.5
  60   23:30   46.0    66    0.8     8      2.6   926.7    0.00       0    53.4
  60   23:40   44.9    69    3.1    91      4.6   926.6    0.00       0    53.3
  60   23:50   44.6    70    4.3    93      5.2   926.6    0.00       0    53.2
  61    0:00   44.7    69    4.4    95      5.9   926.5    0.00       0    53.1
  61    0:10   44.6    70    4.0    91      5.1   926.5    0.00       0    52.9
  61    0:20   45.0    68    2.5    65      3.7   926.5    0.00       0    52.8
  61    0:30   45.3    68    1.9    92      3.1   926.5    0.00       0    52.7
  61    0:40   45.1    68    2.4    88      3.7   926.3    0.00       0    52.6
  61    0:50   44.6    69    4.4    97      6.1   926.2    0.00       0    52.5
  61    1:00   44.4    70    4.6    94      5.9   926.1    0.00       0    52.3
  61    1:10   44.8    69    4.0    94      5.0   926.0    0.00       0    52.2
  61    1:20   45.2    68    2.8    83      3.9   926.0    0.00       0    52.1
  61    1:30   44.9    68    2.7    84      3.9   925.9    0.00       0    52.0
  61    1:40   44.5    69    1.9    97      3.4   925.9    0.00       0    51.9
  61    1:50   44.5    69    2.5    99      3.3   925.8    0.00       0    51.7
  61    2:00   44.5    69    2.8   111      3.7   925.6    0.00       0    51.6
  61    2:10   44.6    69    3.3    96      4.2   925.6    0.00       0    51.5
  61    2:20   44.8    68    3.1    84      3.9   925.5    0.00       0    51.4
  61    2:30   44.7    69    3.4    84      4.5   925.3    0.00       0    51.3
  61    2:40   44.7    70    3.1    91      4.5   925.2    0.00       0    51.2
  61    2:50   44.8    70    3.5    98      4.2   925.1    0.00       0    51.1
  61    3:00   44.6    70    4.0    97      4.9   924.9    0.00       0    51.0
  61    3:10   45.0    69    3.1    99      4.6   924.8    0.00       0    50.9
  61    3:20   45.1    69    2.5   107      3.2   924.5    0.00       0    50.8
  61    3:30   45.3    69    1.2   250      3.7   924.4    0.00       0    50.8
  61    3:40   44.5    70    1.6   279      3.1   924.3    0.00       0    50.6
  61    3:50   44.2    71    2.0   360      3.9   924.3    0.00       0    50.6
  61    4:00   44.0    71    3.2    85      4.8   924.1    0.00       0    50.5
  61    4:10   44.4    70    1.0    85      1.8   924.2    0.00       0    50.4
  61    4:20   44.8    69    1.2   259      2.1   924.1    0.00       0    50.3
  61    4:30   44.9    69    1.2   267      2.0   924.1    0.00       0    50.3
  61    4:40   44.6    70    0.8   188      1.7   924.1    0.00       0    50.2
  61    4:50   44.2    71    1.4   239      2.7   924.1    0.00       0    50.1
  61    5:00   44.0    72    0.0   206      1.0   924.0    0.00       0    50.0
  61    5:10   44.0    72    0.0     0      0.0   924.0    0.00       0    50.0
  61    5:20   43.9    72    1.7   223      3.7   924.0    0.00       0    49.9
  61    5:30   43.5    74    2.8   249      4.2   924.0    0.00       0    49.8
  61    5:40   43.1    75    1.6   243      2.3   924.0    0.00       0    49.7
  61    5:50   42.1    80    4.1   241      6.5   924.0    0.00       0    49.6
  61    6:00   40.8    88    4.6   202      7.0   924.1    0.00       0    49.6
  61    6:10   40.7    90    3.7   190      5.1   924.1    0.00       0    49.5
  61    6:20   40.7    91    2.5   152      4.2   924.1    0.00       0    49.5
  61    6:30   40.8    92    2.8   142      3.8   924.2    0.00       1    49.4
  61    6:40   41.5    92    1.4   211      2.9   924.3    0.00       2    49.3
  61    6:50   41.7    93    0.7   265      2.9   924.3    0.00       5    49.3
  61    7:00   41.8    94    3.1   276      4.8   924.3    0.00      11    49.2
  61    7:10   41.8    95    1.5   317      3.8   924.3    0.00      21    49.2
  61    7:20   41.9    95    0.1     6      1.1   924.3    0.00      17    49.1
  61    7:30   42.0    94    1.4   319      2.9   924.3    0.00      30    49.1
  61    7:40   42.0    93    1.9   316      2.9   924.3    0.00      57    49.1
  61    7:50   42.5    93    2.9   304      6.0   924.3    0.00      99    49.0
  61    8:00   43.1    92    3.8   287      5.8   924.4    0.00     121    49.0
  61    8:10   43.1    92    3.5   293      5.8   924.5    0.00      97    49.0
  61    8:20   43.3    91    2.5   284      4.5   924.5    0.00     176    49.0
  61    8:30   43.6    90    1.0   267      3.4   924.4    0.00     153    49.0
  61    8:40   43.7    89    1.1   238      2.6   924.5    0.00     124    49.0
  61    8:50   44.0    88    0.9   219      3.5   924.5    0.00     202    49.0
  61    9:00   44.3    87    3.1   274      5.0   924.4    0.00     192    49.1
  61    9:10   44.3    89    4.4   272      6.3   924.5    0.00     151    49.1
  61    9:20   44.2    89    2.9   253      6.3   924.5    0.00     190    49.2
  61    9:30   44.6    89    3.7   271      5.8   924.5    0.00     157    49.2
  61    9:40   44.3    89    4.7   264      9.1   924.4    0.00     118    49.3
  61    9:50   44.3    90    5.6   256      9.7   924.4    0.00     181    49.4
  61   10:00   44.4    89    5.7   244      8.8   924.3    0.00     194    49.4
  61   10:10   45.0    87    4.2   265      6.5   924.3    0.00     344    49.5
  61   10:20   45.5    86    4.0   267      6.6   924.3    0.00     475    49.7
  61   10:30   46.5    82    4.0   252      7.2   924.3    0.00     444    49.7
  61   10:40   46.2    82    5.5   219      9.9   924.3    0.00     304    49.9
  61   10:50   45.6    83    4.6   215      8.4   924.3    0.00     178    50.0
  61   11:00   44.5    89    5.4   201      9.0   924.3    0.00      66    50.2
  61   11:10   43.1    90    4.2   190      7.4   924.3    0.01      85    50.3
  61   11:20   43.1    91    2.6   192      5.5   924.3    0.01     235    50.5
  61   11:30   43.5    90    2.5   275      6.1   924.2    0.00     195    50.5
  61   11:40   43.3    90    3.9   243      6.8   924.3    0.00     123    50.6
  61   11:50   43.0    90    3.2   162      6.4   924.3    0.00     146    50.7
  61   12:00   43.6    90    2.9   142      5.0   924.3    0.00     414    50.8
  61   12:10   45.1    86    1.5   214      4.5   924.2    0.00     479    50.8
  61   12:20   45.4    85    3.6   212      8.7   924.0    0.00     463    50.9
  61   12:30   46.5    84    2.5   177      5.3   924.0    0.00     469    51.1
  61   12:40   46.6    80    2.7   218      4.7   923.9    0.00     481    51.2
  61   12:50   46.3    84    3.6   245      7.1   923.9    0.00     317    51.4
  61   13:00   46.3    85    3.5   223      8.7   923.8    0.00     388    51.5
  61   13:10   46.9    81    4.8   212     10.3   923.8    0.00     540    51.7
  61   13:20   47.7    78    5.0   223     10.5   923.7    0.00     583    51.9
  61   13:30   48.3    74    4.1   203      9.9   923.6    0.00     587    52.1
  61   13:40   47.8    73    4.6   206      8.6   923.5    0.00     562    52.2
  61   13:50   48.3    75    5.3   237      9.7   923.4    0.00     549    52.5
  61   14:00   48.7    73    5.3   213     11.2   923.4    0.00     636    52.7
  61   14:10   49.3    74    6.8   235     15.8   923.4    0.00     660    53.0
  61   14:20   49.2    72    6.4   238     13.3   923.5    0.00     655    53.3
  61   14:30   49.6    72    5.0   217     12.3   923.5    0.00     843    53.6
  61   14:40   49.1    69    6.6   239     11.0   923.5    0.00     551    53.8

Return to Highlands Peak graphs page.


Western Regional Climate Center,wrcc@dri.edu